sensor_id;sensor_type;location;lat;lon;timestamp;pressure;altitude;pressure_sealevel;temperature;humidity
79538;BME280;68989;52.032;5.152;2023-11-18T00:01:32;102491.70;;;11.02;56.64
79538;BME280;68989;52.032;5.152;2023-11-18T00:03:59;102491.78;;;11.00;56.64
79538;BME280;68989;52.032;5.152;2023-11-18T00:06:26;102490.26;;;11.00;56.65
79538;BME280;68989;52.032;5.152;2023-11-18T00:08:53;102486.21;;;10.98;56.68
79538;BME280;68989;52.032;5.152;2023-11-18T00:11:19;102487.00;;;10.96;56.62
79538;BME280;68989;52.032;5.152;2023-11-18T00:13:47;102488.04;;;10.95;56.69
79538;BME280;68989;52.032;5.152;2023-11-18T00:16:14;102486.14;;;10.94;56.66
79538;BME280;68989;52.032;5.152;2023-11-18T00:18:41;102484.08;;;10.94;56.72
79538;BME280;68989;52.032;5.152;2023-11-18T00:21:09;102480.82;;;10.94;56.64
79538;BME280;68989;52.032;5.152;2023-11-18T00:23:35;102479.87;;;10.94;56.75
79538;BME280;68989;52.032;5.152;2023-11-18T00:26:03;102479.68;;;10.94;56.76
79538;BME280;68989;52.032;5.152;2023-11-18T00:28:30;102479.78;;;10.94;56.74
79538;BME280;68989;52.032;5.152;2023-11-18T00:30:57;102477.39;;;10.95;56.70
79538;BME280;68989;52.032;5.152;2023-11-18T00:33:24;102480.00;;;10.95;56.69
79538;BME280;68989;52.032;5.152;2023-11-18T00:35:51;102478.61;;;10.95;56.74
79538;BME280;68989;52.032;5.152;2023-11-18T00:38:18;102475.31;;;10.95;56.79
79538;BME280;68989;52.032;5.152;2023-11-18T00:40:45;102478.30;;;10.96;56.86
79538;BME280;68989;52.032;5.152;2023-11-18T00:43:13;102481.32;;;10.97;56.88
79538;BME280;68989;52.032;5.152;2023-11-18T00:45:40;102483.02;;;10.99;56.89
79538;BME280;68989;52.032;5.152;2023-11-18T00:48:07;102486.38;;;11.00;56.89
79538;BME280;68989;52.032;5.152;2023-11-18T00:50:34;102485.66;;;11.00;56.97
79538;BME280;68989;52.032;5.152;2023-11-18T00:53:01;102486.26;;;11.01;56.95
79538;BME280;68989;52.032;5.152;2023-11-18T00:55:28;102486.74;;;11.03;56.98
79538;BME280;68989;52.032;5.152;2023-11-18T00:57:55;102489.10;;;11.05;56.90
79538;BME280;68989;52.032;5.152;2023-11-18T01:00:22;102488.63;;;11.06;56.91
79538;BME280;68989;52.032;5.152;2023-11-18T01:02:49;102486.02;;;11.06;56.90
79538;BME280;68989;52.032;5.152;2023-11-18T01:05:16;102484.87;;;11.07;56.92
79538;BME280;68989;52.032;5.152;2023-11-18T01:07:43;102484.07;;;11.07;56.89
79538;BME280;68989;52.032;5.152;2023-11-18T01:10:11;102488.49;;;11.06;56.99
79538;BME280;68989;52.032;5.152;2023-11-18T01:12:38;102490.92;;;11.07;56.89
79538;BME280;68989;52.032;5.152;2023-11-18T01:15:06;102498.13;;;11.07;56.90
79538;BME280;68989;52.032;5.152;2023-11-18T01:17:34;102497.92;;;11.07;56.83
79538;BME280;68989;52.032;5.152;2023-11-18T01:20:01;102499.99;;;11.06;56.84
79538;BME280;68989;52.032;5.152;2023-11-18T01:22:28;102496.86;;;11.05;56.84
79538;BME280;68989;52.032;5.152;2023-11-18T01:24:55;102492.40;;;11.05;56.77
79538;BME280;68989;52.032;5.152;2023-11-18T01:27:22;102491.94;;;11.04;56.82
79538;BME280;68989;52.032;5.152;2023-11-18T01:29:50;102486.43;;;11.04;56.84
79538;BME280;68989;52.032;5.152;2023-11-18T01:32:17;102488.02;;;11.04;56.88
79538;BME280;68989;52.032;5.152;2023-11-18T01:34:43;102487.91;;;11.03;56.93
79538;BME280;68989;52.032;5.152;2023-11-18T01:37:10;102486.93;;;11.02;56.96
79538;BME280;68989;52.032;5.152;2023-11-18T01:39:37;102491.37;;;11.02;57.05
79538;BME280;68989;52.032;5.152;2023-11-18T01:42:05;102493.14;;;11.03;57.04
79538;BME280;68989;52.032;5.152;2023-11-18T01:44:32;102496.66;;;11.04;57.08
79538;BME280;68989;52.032;5.152;2023-11-18T01:46:59;102496.09;;;11.05;57.07
79538;BME280;68989;52.032;5.152;2023-11-18T01:49:28;102493.96;;;11.07;57.04
79538;BME280;68989;52.032;5.152;2023-11-18T01:51:56;102482.01;;;11.09;57.04
79538;BME280;68989;52.032;5.152;2023-11-18T01:54:23;102486.49;;;11.10;57.08
79538;BME280;68989;52.032;5.152;2023-11-18T01:56:51;102489.66;;;11.11;57.08
79538;BME280;68989;52.032;5.152;2023-11-18T01:59:18;102489.03;;;11.11;57.11
79538;BME280;68989;52.032;5.152;2023-11-18T02:02:13;102490.50;;;11.12;57.09
79538;BME280;68989;52.032;5.152;2023-11-18T02:04:40;102490.77;;;11.13;57.06
79538;BME280;68989;52.032;5.152;2023-11-18T02:07:07;102499.26;;;11.15;57.07
79538;BME280;68989;52.032;5.152;2023-11-18T02:09:35;102502.64;;;11.14;57.16
79538;BME280;68989;52.032;5.152;2023-11-18T02:12:12;102504.30;;;11.15;57.18
79538;BME280;68989;52.032;5.152;2023-11-18T02:14:43;102503.74;;;11.16;57.11
79538;BME280;68989;52.032;5.152;2023-11-18T02:17:14;102503.86;;;11.17;57.12
79538;BME280;68989;52.032;5.152;2023-11-18T02:19:44;102509.72;;;11.18;57.11
79538;BME280;68989;52.032;5.152;2023-11-18T02:22:12;102507.03;;;11.19;57.12
79538;BME280;68989;52.032;5.152;2023-11-18T02:24:40;102505.44;;;11.20;57.16
79538;BME280;68989;52.032;5.152;2023-11-18T02:27:07;102506.77;;;11.20;57.15
79538;BME280;68989;52.032;5.152;2023-11-18T02:29:36;102509.75;;;11.22;57.14
79538;BME280;68989;52.032;5.152;2023-11-18T02:32:11;102505.06;;;11.22;57.18
79538;BME280;68989;52.032;5.152;2023-11-18T02:34:49;102500.95;;;11.23;57.17
79538;BME280;68989;52.032;5.152;2023-11-18T02:37:18;102500.14;;;11.23;57.15
79538;BME280;68989;52.032;5.152;2023-11-18T02:39:48;102491.07;;;11.24;57.18
79538;BME280;68989;52.032;5.152;2023-11-18T02:42:19;102487.29;;;11.24;57.19
79538;BME280;68989;52.032;5.152;2023-11-18T02:44:46;102483.89;;;11.25;57.22
79538;BME280;68989;52.032;5.152;2023-11-18T02:47:14;102481.79;;;11.25;57.18
79538;BME280;68989;52.032;5.152;2023-11-18T02:49:41;102475.38;;;11.25;57.26
79538;BME280;68989;52.032;5.152;2023-11-18T02:52:08;102464.12;;;11.24;57.27
79538;BME280;68989;52.032;5.152;2023-11-18T02:54:35;102464.78;;;11.23;57.36
79538;BME280;68989;52.032;5.152;2023-11-18T02:57:02;102463.70;;;11.23;57.45
79538;BME280;68989;52.032;5.152;2023-11-18T02:59:29;102460.41;;;11.23;57.49
79538;BME280;68989;52.032;5.152;2023-11-18T03:01:56;102459.16;;;11.24;57.47
79538;BME280;68989;52.032;5.152;2023-11-18T03:04:23;102460.11;;;11.24;57.47
79538;BME280;68989;52.032;5.152;2023-11-18T03:06:50;102456.97;;;11.25;57.38
79538;BME280;68989;52.032;5.152;2023-11-18T03:09:18;102459.31;;;11.24;57.51
79538;BME280;68989;52.032;5.152;2023-11-18T03:11:45;102455.34;;;11.26;57.55
79538;BME280;68989;52.032;5.152;2023-11-18T03:14:11;102454.10;;;11.26;57.43
79538;BME280;68989;52.032;5.152;2023-11-18T03:16:39;102455.96;;;11.27;57.45
79538;BME280;68989;52.032;5.152;2023-11-18T03:19:06;102454.08;;;11.28;57.55
79538;BME280;68989;52.032;5.152;2023-11-18T03:21:33;102446.75;;;11.30;57.48
79538;BME280;68989;52.032;5.152;2023-11-18T03:24:00;102444.59;;;11.31;57.49
79538;BME280;68989;52.032;5.152;2023-11-18T03:26:27;102445.88;;;11.32;57.41
79538;BME280;68989;52.032;5.152;2023-11-18T03:28:54;102455.04;;;11.33;57.47
79538;BME280;68989;52.032;5.152;2023-11-18T03:31:21;102454.45;;;11.34;57.42
79538;BME280;68989;52.032;5.152;2023-11-18T03:33:48;102439.85;;;11.35;57.47
79538;BME280;68989;52.032;5.152;2023-11-18T03:36:15;102437.02;;;11.36;57.47
79538;BME280;68989;52.032;5.152;2023-11-18T03:38:42;102432.96;;;11.37;57.45
79538;BME280;68989;52.032;5.152;2023-11-18T03:41:09;102422.96;;;11.37;57.55
79538;BME280;68989;52.032;5.152;2023-11-18T03:43:37;102409.39;;;11.37;57.57
79538;BME280;68989;52.032;5.152;2023-11-18T03:46:04;102404.77;;;11.37;57.62
79538;BME280;68989;52.032;5.152;2023-11-18T03:48:31;102403.14;;;11.37;57.81
79538;BME280;68989;52.032;5.152;2023-11-18T03:50:58;102398.45;;;11.38;57.89
79538;BME280;68989;52.032;5.152;2023-11-18T03:53:25;102392.16;;;11.40;57.75
79538;BME280;68989;52.032;5.152;2023-11-18T03:55:52;102385.85;;;11.41;57.77
79538;BME280;68989;52.032;5.152;2023-11-18T03:58:19;102373.46;;;11.41;57.77
79538;BME280;68989;52.032;5.152;2023-11-18T04:00:46;102372.41;;;11.42;57.80
79538;BME280;68989;52.032;5.152;2023-11-18T04:03:14;102368.35;;;11.42;57.81
79538;BME280;68989;52.032;5.152;2023-11-18T04:05:41;102363.14;;;11.43;57.84
79538;BME280;68989;52.032;5.152;2023-11-18T04:08:08;102363.30;;;11.44;57.75
79538;BME280;68989;52.032;5.152;2023-11-18T04:10:35;102366.56;;;11.46;57.80
79538;BME280;68989;52.032;5.152;2023-11-18T04:13:02;102367.17;;;11.46;57.84
79538;BME280;68989;52.032;5.152;2023-11-18T04:15:29;102374.21;;;11.47;57.82
79538;BME280;68989;52.032;5.152;2023-11-18T04:17:56;102369.45;;;11.48;57.77
79538;BME280;68989;52.032;5.152;2023-11-18T04:20:23;102361.24;;;11.49;57.79
79538;BME280;68989;52.032;5.152;2023-11-18T04:22:51;102353.45;;;11.50;57.87
79538;BME280;68989;52.032;5.152;2023-11-18T04:25:18;102343.72;;;11.51;57.79
79538;BME280;68989;52.032;5.152;2023-11-18T04:27:45;102334.83;;;11.52;57.79
79538;BME280;68989;52.032;5.152;2023-11-18T04:30:13;102331.52;;;11.52;57.95
79538;BME280;68989;52.032;5.152;2023-11-18T04:32:40;102326.55;;;11.52;58.01
79538;BME280;68989;52.032;5.152;2023-11-18T04:35:08;102322.75;;;11.52;58.16
79538;BME280;68989;52.032;5.152;2023-11-18T04:37:36;102318.23;;;11.54;58.10
79538;BME280;68989;52.032;5.152;2023-11-18T04:40:03;102321.44;;;11.55;58.19
79538;BME280;68989;52.032;5.152;2023-11-18T04:42:30;102318.80;;;11.57;58.11
79538;BME280;68989;52.032;5.152;2023-11-18T04:44:57;102313.89;;;11.59;58.06
79538;BME280;68989;52.032;5.152;2023-11-18T04:47:24;102309.24;;;11.60;58.11
79538;BME280;68989;52.032;5.152;2023-11-18T04:49:52;102311.68;;;11.61;58.15
79538;BME280;68989;52.032;5.152;2023-11-18T04:52:19;102314.43;;;11.62;58.06
79538;BME280;68989;52.032;5.152;2023-11-18T04:54:46;102310.47;;;11.63;58.07
79538;BME280;68989;52.032;5.152;2023-11-18T04:57:13;102311.74;;;11.63;58.11
79538;BME280;68989;52.032;5.152;2023-11-18T04:59:41;102307.72;;;11.65;58.13
79538;BME280;68989;52.032;5.152;2023-11-18T05:02:08;102308.80;;;11.66;58.17
79538;BME280;68989;52.032;5.152;2023-11-18T05:04:35;102308.92;;;11.67;58.12
79538;BME280;68989;52.032;5.152;2023-11-18T05:07:02;102318.66;;;11.67;58.12
79538;BME280;68989;52.032;5.152;2023-11-18T05:09:29;102319.26;;;11.68;58.25
79538;BME280;68989;52.032;5.152;2023-11-18T05:11:57;102326.95;;;11.69;58.24
79538;BME280;68989;52.032;5.152;2023-11-18T05:14:25;102326.79;;;11.70;58.16
79538;BME280;68989;52.032;5.152;2023-11-18T05:16:53;102323.34;;;11.71;58.12
79538;BME280;68989;52.032;5.152;2023-11-18T05:19:19;102315.63;;;11.72;57.99
79538;BME280;68989;52.032;5.152;2023-11-18T05:21:46;102306.01;;;11.72;58.01
79538;BME280;68989;52.032;5.152;2023-11-18T05:24:13;102293.73;;;11.72;58.11
79538;BME280;68989;52.032;5.152;2023-11-18T05:26:40;102285.34;;;11.72;58.18
79538;BME280;68989;52.032;5.152;2023-11-18T05:29:07;102281.09;;;11.72;58.21
79538;BME280;68989;52.032;5.152;2023-11-18T05:31:34;102278.90;;;11.73;58.22
79538;BME280;68989;52.032;5.152;2023-11-18T05:34:01;102285.23;;;11.74;58.18
79538;BME280;68989;52.032;5.152;2023-11-18T05:36:28;102286.37;;;11.76;58.13
79538;BME280;68989;52.032;5.152;2023-11-18T05:38:55;102281.77;;;11.75;58.28
79538;BME280;68989;52.032;5.152;2023-11-18T05:41:22;102270.18;;;11.74;58.52
79538;BME280;68989;52.032;5.152;2023-11-18T05:43:49;102262.03;;;11.75;58.52
79538;BME280;68989;52.032;5.152;2023-11-18T05:46:17;102256.76;;;11.76;58.34
79538;BME280;68989;52.032;5.152;2023-11-18T05:48:44;102256.59;;;11.77;58.41
79538;BME280;68989;52.032;5.152;2023-11-18T05:51:12;102250.42;;;11.80;58.31
79538;BME280;68989;52.032;5.152;2023-11-18T05:53:40;102254.36;;;11.80;58.45
79538;BME280;68989;52.032;5.152;2023-11-18T05:56:07;102256.18;;;11.80;58.55
79538;BME280;68989;52.032;5.152;2023-11-18T05:58:35;102255.03;;;11.81;58.50
79538;BME280;68989;52.032;5.152;2023-11-18T06:01:02;102258.96;;;11.82;58.47
79538;BME280;68989;52.032;5.152;2023-11-18T06:03:29;102257.80;;;11.81;58.48
79538;BME280;68989;52.032;5.152;2023-11-18T06:05:56;102251.87;;;11.82;58.42
79538;BME280;68989;52.032;5.152;2023-11-18T06:08:23;102243.65;;;11.84;58.43
79538;BME280;68989;52.032;5.152;2023-11-18T06:10:51;102244.35;;;11.85;58.48
79538;BME280;68989;52.032;5.152;2023-11-18T06:13:18;102249.35;;;11.87;58.39
79538;BME280;68989;52.032;5.152;2023-11-18T06:15:45;102252.68;;;11.88;58.34
79538;BME280;68989;52.032;5.152;2023-11-18T06:18:12;102250.83;;;11.90;58.29
79538;BME280;68989;52.032;5.152;2023-11-18T06:20:39;102249.94;;;11.88;58.50
79538;BME280;68989;52.032;5.152;2023-11-18T06:23:06;102239.80;;;11.88;58.51
79538;BME280;68989;52.032;5.152;2023-11-18T06:25:33;102231.15;;;11.91;58.40
79538;BME280;68989;52.032;5.152;2023-11-18T06:27:59;102225.23;;;11.91;58.46
79538;BME280;68989;52.032;5.152;2023-11-18T06:30:26;102218.64;;;11.92;58.56
79538;BME280;68989;52.032;5.152;2023-11-18T06:32:53;102224.48;;;11.91;58.61
79538;BME280;68989;52.032;5.152;2023-11-18T06:35:21;102228.45;;;11.94;58.38
79538;BME280;68989;52.032;5.152;2023-11-18T06:37:47;102232.69;;;11.95;58.36
79538;BME280;68989;52.032;5.152;2023-11-18T06:40:14;102237.66;;;11.96;58.35
79538;BME280;68989;52.032;5.152;2023-11-18T06:42:41;102240.94;;;11.97;58.32
79538;BME280;68989;52.032;5.152;2023-11-18T06:45:09;102232.66;;;11.97;58.43
79538;BME280;68989;52.032;5.152;2023-11-18T06:47:36;102223.56;;;11.97;58.37
79538;BME280;68989;52.032;5.152;2023-11-18T06:50:04;102221.60;;;11.97;58.54
79538;BME280;68989;52.032;5.152;2023-11-18T06:52:31;102221.72;;;11.98;58.49
79538;BME280;68989;52.032;5.152;2023-11-18T06:54:58;102227.02;;;11.98;58.52
79538;BME280;68989;52.032;5.152;2023-11-18T06:57:25;102224.35;;;11.98;58.59
79538;BME280;68989;52.032;5.152;2023-11-18T06:59:53;102222.93;;;11.98;58.58
79538;BME280;68989;52.032;5.152;2023-11-18T07:02:20;102223.03;;;11.98;58.67
79538;BME280;68989;52.032;5.152;2023-11-18T07:04:46;102214.36;;;11.99;58.62
79538;BME280;68989;52.032;5.152;2023-11-18T07:07:13;102217.56;;;11.98;58.66
79538;BME280;68989;52.032;5.152;2023-11-18T07:09:41;102222.18;;;11.99;58.65
79538;BME280;68989;52.032;5.152;2023-11-18T07:12:08;102223.57;;;11.99;58.63
79538;BME280;68989;52.032;5.152;2023-11-18T07:14:35;102225.82;;;12.00;58.59
79538;BME280;68989;52.032;5.152;2023-11-18T07:17:02;102231.48;;;12.00;58.55
79538;BME280;68989;52.032;5.152;2023-11-18T07:19:29;102234.76;;;11.98;58.76
79538;BME280;68989;52.032;5.152;2023-11-18T07:21:56;102234.78;;;11.99;58.75
79538;BME280;68989;52.032;5.152;2023-11-18T07:24:23;102237.09;;;11.99;58.69
79538;BME280;68989;52.032;5.152;2023-11-18T07:26:51;102238.08;;;11.97;58.90
79538;BME280;68989;52.032;5.152;2023-11-18T07:29:18;102244.57;;;11.98;58.91
79538;BME280;68989;52.032;5.152;2023-11-18T07:31:45;102251.93;;;12.00;58.87
79538;BME280;68989;52.032;5.152;2023-11-18T07:34:12;102255.13;;;12.01;58.76
79538;BME280;68989;52.032;5.152;2023-11-18T07:36:39;102259.82;;;12.02;58.73
79538;BME280;68989;52.032;5.152;2023-11-18T07:39:09;102253.07;;;12.03;58.67
79538;BME280;68989;52.032;5.152;2023-11-18T07:41:37;102246.24;;;12.03;58.65
79538;BME280;68989;52.032;5.152;2023-11-18T07:44:04;102252.91;;;12.03;58.67
79538;BME280;68989;52.032;5.152;2023-11-18T07:46:31;102255.28;;;12.04;58.86
79538;BME280;68989;52.032;5.152;2023-11-18T07:48:58;102246.71;;;12.05;58.77
79538;BME280;68989;52.032;5.152;2023-11-18T07:51:25;102238.46;;;12.05;58.85
79538;BME280;68989;52.032;5.152;2023-11-18T07:53:53;102233.80;;;12.06;58.90
79538;BME280;68989;52.032;5.152;2023-11-18T07:56:20;102235.67;;;12.08;58.84
79538;BME280;68989;52.032;5.152;2023-11-18T07:58:47;102235.76;;;12.10;58.81
79538;BME280;68989;52.032;5.152;2023-11-18T08:01:15;102243.69;;;12.11;58.91
79538;BME280;68989;52.032;5.152;2023-11-18T08:03:41;102241.83;;;12.13;58.78
79538;BME280;68989;52.032;5.152;2023-11-18T08:06:08;102242.40;;;12.13;58.67
79538;BME280;68989;52.032;5.152;2023-11-18T08:08:36;102234.68;;;12.14;58.82
79538;BME280;68989;52.032;5.152;2023-11-18T08:11:03;102233.85;;;12.13;58.76
79538;BME280;68989;52.032;5.152;2023-11-18T08:13:32;102218.37;;;12.13;58.97
79538;BME280;68989;52.032;5.152;2023-11-18T08:15:59;102206.46;;;12.12;59.06
79538;BME280;68989;52.032;5.152;2023-11-18T08:18:26;102202.20;;;12.14;59.08
79538;BME280;68989;52.032;5.152;2023-11-18T08:20:54;102197.17;;;12.15;58.99
79538;BME280;68989;52.032;5.152;2023-11-18T08:23:20;102195.92;;;12.18;58.98
79538;BME280;68989;52.032;5.152;2023-11-18T08:25:48;102191.97;;;12.20;58.81
79538;BME280;68989;52.032;5.152;2023-11-18T08:28:15;102186.63;;;12.22;58.99
79538;BME280;68989;52.032;5.152;2023-11-18T08:30:42;102177.52;;;12.23;58.86
79538;BME280;68989;52.032;5.152;2023-11-18T08:33:09;102178.53;;;12.25;58.96
79538;BME280;68989;52.032;5.152;2023-11-18T08:35:36;102181.59;;;12.26;58.94
79538;BME280;68989;52.032;5.152;2023-11-18T08:38:02;102169.82;;;12.28;59.00
79538;BME280;68989;52.032;5.152;2023-11-18T08:40:30;102163.14;;;12.30;59.05
79538;BME280;68989;52.032;5.152;2023-11-18T08:42:57;102163.58;;;12.32;58.97
79538;BME280;68989;52.032;5.152;2023-11-18T08:45:25;102165.20;;;12.34;59.03
79538;BME280;68989;52.032;5.152;2023-11-18T08:47:54;102158.02;;;12.38;59.08
79538;BME280;68989;52.032;5.152;2023-11-18T08:50:21;102157.50;;;12.40;59.17
79538;BME280;68989;52.032;5.152;2023-11-18T08:52:49;102155.74;;;12.40;59.18
79538;BME280;68989;52.032;5.152;2023-11-18T08:55:16;102144.96;;;12.41;59.08
79538;BME280;68989;52.032;5.152;2023-11-18T08:57:45;102139.98;;;12.43;59.22
79538;BME280;68989;52.032;5.152;2023-11-18T09:00:13;102132.69;;;12.46;58.95
79538;BME280;68989;52.032;5.152;2023-11-18T09:02:40;102121.45;;;12.48;59.04
79538;BME280;68989;52.032;5.152;2023-11-18T09:05:08;102122.62;;;12.50;59.09
79538;BME280;68989;52.032;5.152;2023-11-18T09:07:35;102116.11;;;12.52;58.95
79538;BME280;68989;52.032;5.152;2023-11-18T09:10:02;102106.38;;;12.52;58.98
79538;BME280;68989;52.032;5.152;2023-11-18T09:12:29;102105.81;;;12.50;59.20
79538;BME280;68989;52.032;5.152;2023-11-18T09:14:56;102102.96;;;12.50;59.27
79538;BME280;68989;52.032;5.152;2023-11-18T09:17:23;102105.80;;;12.53;59.19
79538;BME280;68989;52.032;5.152;2023-11-18T09:19:50;102096.88;;;12.55;59.06
79538;BME280;68989;52.032;5.152;2023-11-18T09:22:19;102087.26;;;12.54;59.17
79538;BME280;68989;52.032;5.152;2023-11-18T09:24:45;102090.32;;;12.54;59.10
79538;BME280;68989;52.032;5.152;2023-11-18T09:27:12;102096.19;;;12.55;59.25
79538;BME280;68989;52.032;5.152;2023-11-18T09:29:40;102086.76;;;12.58;59.15
79538;BME280;68989;52.032;5.152;2023-11-18T09:32:07;102077.12;;;12.56;59.12
79538;BME280;68989;52.032;5.152;2023-11-18T09:34:34;102058.31;;;12.57;58.99
79538;BME280;68989;52.032;5.152;2023-11-18T09:37:01;102051.12;;;12.58;59.19
79538;BME280;68989;52.032;5.152;2023-11-18T09:39:28;102047.82;;;12.57;59.17
79538;BME280;68989;52.032;5.152;2023-11-18T09:41:55;102043.13;;;12.56;59.31
79538;BME280;68989;52.032;5.152;2023-11-18T09:44:22;102035.22;;;12.57;59.36
79538;BME280;68989;52.032;5.152;2023-11-18T09:46:51;102036.10;;;12.58;59.35
79538;BME280;68989;52.032;5.152;2023-11-18T09:49:26;102042.32;;;12.58;59.54
79538;BME280;68989;52.032;5.152;2023-11-18T09:51:57;102054.47;;;12.59;59.53
79538;BME280;68989;52.032;5.152;2023-11-18T09:54:27;102057.80;;;12.61;59.49
79538;BME280;68989;52.032;5.152;2023-11-18T09:57:04;102050.96;;;12.65;59.53
79538;BME280;68989;52.032;5.152;2023-11-18T09:59:39;102051.11;;;12.66;59.64
79538;BME280;68989;52.032;5.152;2023-11-18T10:02:09;102045.61;;;12.70;59.78
79538;BME280;68989;52.032;5.152;2023-11-18T10:04:37;102035.20;;;12.74;59.69
79538;BME280;68989;52.032;5.152;2023-11-18T10:07:04;102030.31;;;12.78;59.88
79538;BME280;68989;52.032;5.152;2023-11-18T10:09:32;102031.01;;;12.81;59.85
79538;BME280;68989;52.032;5.152;2023-11-18T10:11:59;102031.50;;;12.83;59.98
79538;BME280;68989;52.032;5.152;2023-11-18T10:14:25;102025.23;;;12.87;60.20
79538;BME280;68989;52.032;5.152;2023-11-18T10:16:53;102015.64;;;12.88;60.23
79538;BME280;68989;52.032;5.152;2023-11-18T10:19:20;102020.80;;;12.92;60.39
79538;BME280;68989;52.032;5.152;2023-11-18T10:21:47;102030.48;;;12.94;60.57
79538;BME280;68989;52.032;5.152;2023-11-18T10:24:13;102045.05;;;12.97;60.62
79538;BME280;68989;52.032;5.152;2023-11-18T10:26:42;102047.54;;;13.00;60.54
79538;BME280;68989;52.032;5.152;2023-11-18T10:29:09;102040.31;;;13.02;60.55
79538;BME280;68989;52.032;5.152;2023-11-18T10:31:37;102029.04;;;13.01;60.78
79538;BME280;68989;52.032;5.152;2023-11-18T10:34:04;102015.57;;;13.01;60.99
79538;BME280;68989;52.032;5.152;2023-11-18T10:36:30;102008.93;;;13.01;61.13
79538;BME280;68989;52.032;5.152;2023-11-18T10:38:58;101998.78;;;13.02;61.10
79538;BME280;68989;52.032;5.152;2023-11-18T10:41:28;101994.80;;;13.05;61.25
79538;BME280;68989;52.032;5.152;2023-11-18T10:44:05;101980.64;;;13.08;61.32
79538;BME280;68989;52.032;5.152;2023-11-18T10:46:32;101983.08;;;13.09;61.50
79538;BME280;68989;52.032;5.152;2023-11-18T10:48:59;101965.86;;;13.11;61.66
79538;BME280;68989;52.032;5.152;2023-11-18T10:51:27;101964.06;;;13.14;61.60
79538;BME280;68989;52.032;5.152;2023-11-18T10:53:55;101964.65;;;13.16;61.67
79538;BME280;68989;52.032;5.152;2023-11-18T10:56:23;101958.18;;;13.15;61.64
79538;BME280;68989;52.032;5.152;2023-11-18T10:58:50;101960.83;;;13.16;61.63
79538;BME280;68989;52.032;5.152;2023-11-18T11:01:27;101968.54;;;13.17;61.63
79538;BME280;68989;52.032;5.152;2023-11-18T11:03:55;101970.38;;;13.19;61.63
79538;BME280;68989;52.032;5.152;2023-11-18T11:06:23;101969.34;;;13.18;61.68
79538;BME280;68989;52.032;5.152;2023-11-18T11:08:51;101952.03;;;13.20;61.58
79538;BME280;68989;52.032;5.152;2023-11-18T11:11:20;101948.40;;;13.23;61.57
79538;BME280;68989;52.032;5.152;2023-11-18T11:13:49;101925.85;;;13.24;61.50
79538;BME280;68989;52.032;5.152;2023-11-18T11:16:19;101910.10;;;13.25;61.45
79538;BME280;68989;52.032;5.152;2023-11-18T11:18:48;101891.75;;;13.26;61.58
79538;BME280;68989;52.032;5.152;2023-11-18T11:21:24;101860.67;;;13.26;61.72
79538;BME280;68989;52.032;5.152;2023-11-18T11:23:55;101828.72;;;13.27;61.83
79538;BME280;68989;52.032;5.152;2023-11-18T11:26:29;101808.56;;;13.26;61.84
79538;BME280;68989;52.032;5.152;2023-11-18T11:29:07;101801.97;;;13.27;62.02
79538;BME280;68989;52.032;5.152;2023-11-18T11:31:40;101814.65;;;13.29;62.23
79538;BME280;68989;52.032;5.152;2023-11-18T11:34:14;101811.54;;;13.27;62.41
79538;BME280;68989;52.032;5.152;2023-11-18T11:36:44;101817.23;;;13.33;62.35
79538;BME280;68989;52.032;5.152;2023-11-18T11:39:13;101814.96;;;13.33;62.67
79538;BME280;68989;52.032;5.152;2023-11-18T11:41:44;101809.39;;;13.36;62.63
79538;BME280;68989;52.032;5.152;2023-11-18T11:44:13;101810.27;;;13.36;62.90
79538;BME280;68989;52.032;5.152;2023-11-18T11:46:41;101804.98;;;13.38;62.91
79538;BME280;68989;52.032;5.152;2023-11-18T11:49:10;101795.37;;;13.41;62.93
79538;BME280;68989;52.032;5.152;2023-11-18T11:51:45;101766.23;;;13.45;62.85
79538;BME280;68989;52.032;5.152;2023-11-18T11:54:18;101753.67;;;13.47;62.89
79538;BME280;68989;52.032;5.152;2023-11-18T11:56:49;101736.40;;;13.47;63.10
79538;BME280;68989;52.032;5.152;2023-11-18T11:59:16;101740.17;;;13.51;63.16
79538;BME280;68989;52.032;5.152;2023-11-18T12:01:44;101739.51;;;13.53;63.36
79538;BME280;68989;52.032;5.152;2023-11-18T12:04:15;101734.31;;;13.55;63.35
79538;BME280;68989;52.032;5.152;2023-11-18T12:06:43;101707.79;;;13.58;63.30
79538;BME280;68989;52.032;5.152;2023-11-18T12:09:13;101688.71;;;13.61;63.17
79538;BME280;68989;52.032;5.152;2023-11-18T12:11:42;101678.05;;;13.62;62.99
79538;BME280;68989;52.032;5.152;2023-11-18T12:14:09;101689.95;;;13.62;63.19
79538;BME280;68989;52.032;5.152;2023-11-18T12:17:08;101693.94;;;13.63;63.20
79538;BME280;68989;52.032;5.152;2023-11-18T12:19:36;101680.59;;;13.62;63.19
79538;BME280;68989;52.032;5.152;2023-11-18T12:22:03;101666.91;;;13.66;63.14
79538;BME280;68989;52.032;5.152;2023-11-18T12:24:30;101647.48;;;13.69;63.25
79538;BME280;68989;52.032;5.152;2023-11-18T12:26:59;101647.31;;;13.72;63.18
79538;BME280;68989;52.032;5.152;2023-11-18T12:29:33;101649.64;;;13.69;63.33
79538;BME280;68989;52.032;5.152;2023-11-18T12:32:01;101641.40;;;13.72;63.31
79538;BME280;68989;52.032;5.152;2023-11-18T12:34:49;101620.73;;;13.74;63.19
79538;BME280;68989;52.032;5.152;2023-11-18T12:37:33;101619.75;;;13.77;63.09
79538;BME280;68989;52.032;5.152;2023-11-18T12:40:36;101637.21;;;13.80;63.05
79538;BME280;68989;52.032;5.152;2023-11-18T12:43:07;101684.40;;;13.83;63.08
79538;BME280;68989;52.032;5.152;2023-11-18T12:45:44;101679.84;;;13.84;62.86
79538;BME280;68989;52.032;5.152;2023-11-18T12:48:20;101652.64;;;13.82;62.81
79538;BME280;68989;52.032;5.152;2023-11-18T12:50:48;101620.29;;;13.83;62.74
79538;BME280;68989;52.032;5.152;2023-11-18T12:53:15;101563.22;;;13.85;62.68
79538;BME280;68989;52.032;5.152;2023-11-18T12:55:42;101552.28;;;13.85;62.74